Broadmoor, Illinois
Current Conditions -  °F | °C
As of 8:55 PM on Friday 21 Nov 2014 (Local Time) from KC75 Reporting Station
Overcast Overcast  
Wind Chill: 27°   Ceiling: 2400
Heat Index: 35°   Visibility: 10mi
Dew Point: 14°   Wind: 10mph
Humidity: 43%   Direction: 170°S
Pressure: 30.21"   Gusts: 16mph
Location:  41.1472°N, 89.6399°W
Report Text: KC75 220255Z AUTO 17009G14KT 10SM OVC024 02/M10 A3021 RMK AO2 T00151100
Loading
Personal Weather Stations






























Interactive Weather Map New forecast layout! Learn more

10-Day Weather Forecast

Advertisements
Track Severe Weather on mobile